createdAt,value
2022-08-07T00:02:48.078Z,2.3
2022-08-07T00:07:48.078Z,2.3
2022-08-07T00:13:00.115Z,2.5
2022-08-07T00:17:48.086Z,2.2
2022-08-07T00:22:51.715Z,2.3
2022-08-07T00:27:52.533Z,2.1
2022-08-07T00:32:48.092Z,2.4
2022-08-07T00:37:48.623Z,2.1
2022-08-07T00:42:50.248Z,2.2
2022-08-07T00:48:10.159Z,2.4
2022-08-07T00:52:48.100Z,2.3
2022-08-07T00:57:55.934Z,2.3
2022-08-07T01:02:48.103Z,2.1
2022-08-07T01:07:48.103Z,2.5
2022-08-07T01:12:54.042Z,2.2
2022-08-07T01:17:48.110Z,3.2
2022-08-07T01:23:00.363Z,2.5
2022-08-07T01:27:51.171Z,2.2
2022-08-07T01:32:48.111Z,2.1
2022-08-07T01:37:48.115Z,2.3
2022-08-07T01:42:56.962Z,2.6
2022-08-07T01:52:49.459Z,2.0
2022-08-07T01:58:06.337Z,2.1
2022-08-07T02:03:11.902Z,2.5
2022-08-07T02:07:50.641Z,2.2
2022-08-07T02:12:50.214Z,2.5
2022-08-07T02:17:49.533Z,2.9
2022-08-07T02:22:54.895Z,2.5
2022-08-07T02:27:52.134Z,2.6
2022-08-07T02:37:48.150Z,2.5
2022-08-07T02:42:48.156Z,2.5
2022-08-07T02:47:49.137Z,2.4
2022-08-07T02:52:48.914Z,2.5
2022-08-07T02:57:48.156Z,2.7
2022-08-07T03:02:54.575Z,2.7
2022-08-07T03:08:07.581Z,2.4
2022-08-07T03:12:48.160Z,3.0
2022-08-07T03:17:53.311Z,2.8
2022-08-07T03:22:50.186Z,2.8
2022-08-07T03:27:59.400Z,2.9
2022-08-07T03:32:57.010Z,2.9
2022-08-07T03:37:53.555Z,2.9
2022-08-07T03:42:49.299Z,2.8
2022-08-07T03:47:51.565Z,3.0
2022-08-07T03:52:48.186Z,3.1
2022-08-07T03:58:32.483Z,3.0
2022-08-07T04:02:49.318Z,3.5
2022-08-07T04:07:48.504Z,3.2
2022-08-07T04:12:48.199Z,3.0
2022-08-07T04:18:31.116Z,3.0
2022-08-07T04:22:53.585Z,3.2
2022-08-07T04:27:59.154Z,3.1
2022-08-07T04:32:48.365Z,3.2
2022-08-07T04:38:04.654Z,3.9
2022-08-07T04:42:51.847Z,3.8
2022-08-07T04:47:56.955Z,3.4
2022-08-07T04:52:51.991Z,4.5
2022-08-07T04:58:16.043Z,4.8
2022-08-07T05:02:48.223Z,5.3
2022-08-07T05:07:51.707Z,6.0
2022-08-07T05:12:53.735Z,5.3
2022-08-07T05:17:52.838Z,6.1
2022-08-07T05:22:48.244Z,6.6
2022-08-07T05:28:03.183Z,7.2
2022-08-07T05:32:48.260Z,7.5
2022-08-07T05:37:48.243Z,7.1
2022-08-07T05:42:56.092Z,7.6
2022-08-07T05:48:02.026Z,7.3
2022-08-07T05:52:48.254Z,7.6
2022-08-07T05:57:48.256Z,7.9
2022-08-07T06:02:48.260Z,7.4
2022-08-07T06:08:13.169Z,6.4
2022-08-07T06:12:48.261Z,7.3
2022-08-07T06:17:53.439Z,7.2
2022-08-07T06:23:01.714Z,7.2
2022-08-07T06:27:59.852Z,6.5
2022-08-07T06:32:48.282Z,6.5
2022-08-07T06:37:48.305Z,6.6
2022-08-07T06:42:48.297Z,6.5
2022-08-07T06:47:58.546Z,6.4
2022-08-07T06:52:48.301Z,7.3
2022-08-07T06:57:53.403Z,6.3
2022-08-07T07:02:54.086Z,6.9
2022-08-07T07:07:59.771Z,7.1
2022-08-07T07:12:48.909Z,6.8
2022-08-07T07:17:50.561Z,6.5
2022-08-07T07:24:11.126Z,6.7
2022-08-07T07:27:55.801Z,7.0
2022-08-07T07:32:48.354Z,6.0
2022-08-07T07:37:59.196Z,6.2
2022-08-07T07:42:53.809Z,6.3
2022-08-07T07:47:52.853Z,6.1
2022-08-07T07:52:48.381Z,6.0
2022-08-07T07:57:52.872Z,5.7
2022-08-07T08:03:04.570Z,5.2
2022-08-07T08:07:59.566Z,5.2
2022-08-07T08:12:59.098Z,4.6
2022-08-07T08:17:57.822Z,4.2
2022-08-07T08:22:54.118Z,4.2
2022-08-07T08:27:56.302Z,4.0
2022-08-07T08:32:49.141Z,3.7
2022-08-07T08:38:00.966Z,3.5
2022-08-07T08:42:51.736Z,3.2
2022-08-07T08:47:54.893Z,2.7
2022-08-07T08:52:54.104Z,2.8
2022-08-07T08:57:48.421Z,2.5
2022-08-07T09:02:49.614Z,2.6
2022-08-07T09:07:57.984Z,2.4
2022-08-07T09:12:53.111Z,3.6
2022-08-07T09:17:59.716Z,2.5
2022-08-07T09:24:32.710Z,1.9
2022-08-07T09:28:00.585Z,2.0
2022-08-07T09:32:48.453Z,2.1
2022-08-07T09:37:53.490Z,2.0
2022-08-07T09:42:50.374Z,1.9
2022-08-07T09:47:59.972Z,1.3
2022-08-07T09:52:51.702Z,1.1
2022-08-07T09:57:48.468Z,1.4
2022-08-07T10:02:55.247Z,2.2
2022-08-07T10:07:53.745Z,1.6
2022-08-07T10:12:52.961Z,2.0
2022-08-07T10:18:01.704Z,1.8
2022-08-07T10:22:50.829Z,1.8
2022-08-07T10:27:51.133Z,1.5
2022-08-07T10:32:53.748Z,1.7
2022-08-07T10:38:09.723Z,1.7
2022-08-07T10:42:48.404Z,2.0
2022-08-07T10:47:53.105Z,1.7
2022-08-07T10:52:48.664Z,1.6
2022-08-07T10:57:56.174Z,1.4
2022-08-07T11:02:49.371Z,1.7
2022-08-07T11:07:59.349Z,2.0
2022-08-07T11:12:49.222Z,2.1
2022-08-07T11:17:48.811Z,2.0
2022-08-07T11:22:48.524Z,1.8
2022-08-07T11:28:03.124Z,1.9
2022-08-07T11:32:48.566Z,1.6
2022-08-07T11:37:58.255Z,1.8
2022-08-07T11:42:48.441Z,1.7
2022-08-07T11:47:56.225Z,1.8
2022-08-07T11:52:48.447Z,1.6
2022-08-07T11:57:59.971Z,1.9
2022-08-07T12:02:52.731Z,1.9
2022-08-07T12:07:53.392Z,1.5
2022-08-07T12:12:48.462Z,1.4
2022-08-07T12:17:59.774Z,1.6
2022-08-07T12:22:56.510Z,1.6
2022-08-07T12:28:09.337Z,1.6
2022-08-07T12:32:48.475Z,1.5
2022-08-07T12:38:11.374Z,1.3
2022-08-07T12:42:52.665Z,1.7
2022-08-07T12:47:49.472Z,1.4
2022-08-07T12:52:48.519Z,1.4
2022-08-07T12:58:00.450Z,1.3
2022-08-07T13:02:49.808Z,1.2
2022-08-07T13:08:13.841Z,1.0
2022-08-07T13:12:48.502Z,1.3
2022-08-07T13:17:48.512Z,1.5
2022-08-07T13:22:52.549Z,1.3
2022-08-07T13:28:10.596Z,1.3
2022-08-07T13:32:48.585Z,1.4
2022-08-07T13:37:55.563Z,1.3
2022-08-07T13:42:48.525Z,1.2
2022-08-07T13:48:07.654Z,1.3
2022-08-07T13:52:48.540Z,1.2
2022-08-07T13:58:01.771Z,1.3
2022-08-07T14:02:51.045Z,1.3
2022-08-07T14:07:59.291Z,1.4
2022-08-07T14:12:49.402Z,1.2
2022-08-07T14:18:27.488Z,1.3
2022-08-07T14:22:48.569Z,1.4
2022-08-07T14:28:10.809Z,1.2
2022-08-07T14:32:48.576Z,1.0
2022-08-07T14:38:05.670Z,1.1
2022-08-07T14:43:00.967Z,1.2
2022-08-07T14:47:48.578Z,1.1
2022-08-07T14:52:50.257Z,1.1
2022-08-07T14:57:58.881Z,1.2
2022-08-07T15:02:56.681Z,1.2
2022-08-07T15:07:51.974Z,1.2
2022-08-07T15:12:54.943Z,1.3
2022-08-07T15:22:53.834Z,1.3
2022-08-07T15:28:32.963Z,1.3
2022-08-07T15:33:01.195Z,1.4
2022-08-07T15:38:17.713Z,1.2
2022-08-07T15:42:51.846Z,1.4
2022-08-07T15:48:00.749Z,1.4
2022-08-07T15:52:51.734Z,1.5
2022-08-07T15:57:49.382Z,1.2
2022-08-07T16:02:48.617Z,1.2
2022-08-07T16:08:30.695Z,1.2
2022-08-07T16:13:01.100Z,1.1
2022-08-07T16:18:01.972Z,1.4
2022-08-07T16:22:54.939Z,1.1
2022-08-07T16:27:48.626Z,1.2
2022-08-07T16:32:54.573Z,1.2
2022-08-07T16:38:04.244Z,1.2
2022-08-07T16:42:48.633Z,1.3
2022-08-07T16:47:56.405Z,1.1
2022-08-07T16:52:52.749Z,1.2
2022-08-07T16:58:02.156Z,1.2
2022-08-07T17:02:52.982Z,1.0
2022-08-07T17:07:57.849Z,1.1
2022-08-07T17:12:48.912Z,1.1
2022-08-07T17:17:48.665Z,1.4
2022-08-07T17:22:48.668Z,1.4
2022-08-07T17:27:50.982Z,1.3
2022-08-07T17:32:52.061Z,1.4
2022-08-07T17:38:05.777Z,1.7
2022-08-07T17:42:58.578Z,1.3
2022-08-07T17:47:53.879Z,1.2
2022-08-07T17:52:48.672Z,1.2
2022-08-07T17:57:58.801Z,1.1
2022-08-07T18:02:53.828Z,1.2
2022-08-07T18:07:48.670Z,1.1
2022-08-07T18:12:48.777Z,1.1
2022-08-07T18:18:47.731Z,0.9
2022-08-07T18:22:48.777Z,1.0
2022-08-07T18:27:48.801Z,1.2
2022-08-07T18:32:48.783Z,1.1
2022-08-07T18:38:58.987Z,1.3
2022-08-07T18:42:48.783Z,1.4
2022-08-07T18:47:48.782Z,1.3
2022-08-07T18:52:54.403Z,1.3
2022-08-07T18:57:58.627Z,1.2
2022-08-07T19:02:51.372Z,1.3
2022-08-07T19:07:51.899Z,1.3
2022-08-07T19:12:53.601Z,1.4
2022-08-07T19:17:58.854Z,1.4
2022-08-07T19:22:48.795Z,1.3
2022-08-07T19:28:57.422Z,1.6
2022-08-07T19:32:51.217Z,1.5
2022-08-07T19:37:55.202Z,1.8
2022-08-07T19:42:49.367Z,1.7
2022-08-07T19:47:48.800Z,1.8
2022-08-07T19:52:59.215Z,1.6
2022-08-07T19:58:01.821Z,2.0
2022-08-07T20:02:52.113Z,2.1
2022-08-07T20:07:51.118Z,2.1
2022-08-07T20:12:48.818Z,1.9
2022-08-07T20:18:01.519Z,1.9
2022-08-07T20:22:48.813Z,1.9
2022-08-07T20:27:54.323Z,2.3
2022-08-07T20:32:48.814Z,2.2
2022-08-07T20:37:58.490Z,2.3
2022-08-07T20:42:48.835Z,2.5
2022-08-07T20:47:56.659Z,2.3
2022-08-07T20:52:52.070Z,2.3
2022-08-07T20:58:04.073Z,2.8
2022-08-07T21:02:53.930Z,2.6
2022-08-07T21:07:49.853Z,2.7
2022-08-07T21:12:48.858Z,2.5
2022-08-07T21:18:06.043Z,2.8
2022-08-07T21:22:51.379Z,2.5
2022-08-07T21:27:48.840Z,3.0
2022-08-07T21:32:52.106Z,3.0
2022-08-07T21:37:58.262Z,3.1
2022-08-07T21:42:49.096Z,2.8
2022-08-07T21:47:50.453Z,3.3
2022-08-07T21:52:48.861Z,3.3
2022-08-07T21:57:52.089Z,3.1
2022-08-07T22:02:49.049Z,3.2
2022-08-07T22:07:59.524Z,3.1
2022-08-07T22:12:49.552Z,3.1
2022-08-07T22:17:51.601Z,3.4
2022-08-07T22:22:49.248Z,3.4
2022-08-07T22:28:29.599Z,3.5
2022-08-07T22:32:48.871Z,3.5
2022-08-07T22:38:01.753Z,3.2
2022-08-07T22:42:48.875Z,3.6
2022-08-07T22:47:49.262Z,3.5
2022-08-07T22:52:48.886Z,3.5
2022-08-07T22:57:48.893Z,3.2
2022-08-07T23:02:48.989Z,3.7
2022-08-07T23:07:48.882Z,4.2
2022-08-07T23:12:48.892Z,4.5
2022-08-07T23:17:48.891Z,4.5
2022-08-07T23:22:48.892Z,4.6
2022-08-07T23:28:22.013Z,4.2
2022-08-07T23:34:33.672Z,4.1
2022-08-07T23:38:01.685Z,4.0
2022-08-07T23:42:48.907Z,4.1
2022-08-07T23:47:48.924Z,4.4
2022-08-07T23:52:59.825Z,4.3
2022-08-07T23:57:48.923Z,4.5
